Canyonlands National Park, UT

11:53 PM MDT on May 03, 2015 (GMT -0600)
MesoWest | | Change Station
CLOSE
Current Station
Personal Weather Station
Location: Moab, UT
Elevation: 4476 ft
Nearby Weather Stations

Elev 4476 ft 38.54 °N, 109.51 °W | Updated 53 minutes ago

Overcast
Overcast
62 °F
Feels Like 62 °F
N
2
Wind Variable Wind from South
Gusts 5.0 mph

Today
High -- | Low -- °F
--% Chance of Precip.
Yesterday
High -- | Low -- °F
Precip. -- in
6:18 AM 8:11 PM
Full, 100% visible
Pressure 29.77 in
Visibility 10.0 miles
Clouds Clear
Dew Point 37 °F
Humidity 39%
Rainfall in
Snow Depth Not available.
UV 0 out of 12
Pollen 9.50 out of 12
Air Quality Not available.
Flu Activity Regional
METAR KCNY 040453Z AUTO 04014KT 10SM CLR 17/04 A2992 RMK AO2 SLP081 T01670044

More Conditions Fewer Conditions

Pressure 29.77 in
Visibility 10.0 miles
Clouds Clear
Dew Point 37 °F
Humidity 39%
Rainfall in
Snow Depth Not available.
UV 0 out of 12
Pollen 9.50 out of 12
Air Quality Not available.
Flu Activity Regional
METAR KCNY 040453Z AUTO 04014KT 10SM CLR 17/04 A2992 RMK AO2 SLP081 T01670044

More Conditions Fewer Conditions

Nepal has a long way to go to dig out and rebuild from a devastating earthquake. We have teamed up with several charities and organizations to make contributing to the relief effort as easy as possible.
How you can help: Portlight Strategies | Red Cross

10-Day Weather Forecast

Almanac

Astronomy

May. 03, 2015 Rise Set
Actual Time
Civil Twilight
Nautical Twilight
Astronomical Twilight
Moon
Length of Visible Light
Length of Day
Tomorrow will be .
, % of the Moon is Illuminated

Today's Extremes

State Highs State Lows

Community

WunderPhotos

Upload Photos

1,818,535 photos uploaded!

WunderBlogs® & News

Nearby

Air Quality

  Air Quality AQ Index Pollutant
Not available.

Snow Depth

Station Depth Elevation

Earthquake Activity

City Distance Mag. Time & Date
Minimum magnitude displayed is 2.5.

Coastal Water Temperatures

Place Temperature

Stations

Nearby Weather Stations

Station Location Temp. Windchill Dew Point Humidity Wind Precip. Elev Updated Type